sensor_id;sensor_type;location;lat;lon;timestamp;temperature;humidity
78516;SHT31;67815;51.990;5.688;2023-04-29T00:01:29;13.1;70.0
78516;SHT31;67815;51.990;5.688;2023-04-29T00:03:59;13.1;70.6
78516;SHT31;67815;51.990;5.688;2023-04-29T00:06:29;13.1;70.6
78516;SHT31;67815;51.990;5.688;2023-04-29T00:08:58;13.1;70.5
78516;SHT31;67815;51.990;5.688;2023-04-29T00:11:28;13.1;70.6
78516;SHT31;67815;51.990;5.688;2023-04-29T00:13:57;13.1;70.2
78516;SHT31;67815;51.990;5.688;2023-04-29T00:16:27;13.1;70.9
78516;SHT31;67815;51.990;5.688;2023-04-29T00:18:57;13.1;70.6
78516;SHT31;67815;51.990;5.688;2023-04-29T00:21:28;13.1;70.8
78516;SHT31;67815;51.990;5.688;2023-04-29T00:23:59;13.1;71.2
78516;SHT31;67815;51.990;5.688;2023-04-29T00:26:29;13.1;71.3
78516;SHT31;67815;51.990;5.688;2023-04-29T00:28:59;13.0;71.1
78516;SHT31;67815;51.990;5.688;2023-04-29T00:31:28;13.0;71.7
78516;SHT31;67815;51.990;5.688;2023-04-29T00:33:59;13.0;71.5
78516;SHT31;67815;51.990;5.688;2023-04-29T00:36:30;13.0;71.6
78516;SHT31;67815;51.990;5.688;2023-04-29T00:39:00;13.0;71.5
78516;SHT31;67815;51.990;5.688;2023-04-29T00:41:29;13.0;71.9
78516;SHT31;67815;51.990;5.688;2023-04-29T00:44:00;13.0;72.1
78516;SHT31;67815;51.990;5.688;2023-04-29T00:46:29;13.0;72.3
78516;SHT31;67815;51.990;5.688;2023-04-29T00:49:00;13.0;72.1
78516;SHT31;67815;51.990;5.688;2023-04-29T00:51:31;13.0;72.1
78516;SHT31;67815;51.990;5.688;2023-04-29T00:54:03;13.0;72.3
78516;SHT31;67815;51.990;5.688;2023-04-29T00:56:34;12.9;72.1
78516;SHT31;67815;51.990;5.688;2023-04-29T00:59:05;12.9;72.3
78516;SHT31;67815;51.990;5.688;2023-04-29T01:01:37;12.9;72.2
78516;SHT31;67815;51.990;5.688;2023-04-29T01:04:07;12.9;72.5
78516;SHT31;67815;51.990;5.688;2023-04-29T01:06:50;12.9;72.4
78516;SHT31;67815;51.990;5.688;2023-04-29T01:09:42;12.9;72.2
78516;SHT31;67815;51.990;5.688;2023-04-29T01:12:23;12.9;72.4
78516;SHT31;67815;51.990;5.688;2023-04-29T01:15:05;12.9;72.0
78516;SHT31;67815;51.990;5.688;2023-04-29T01:17:41;12.9;71.9
78516;SHT31;67815;51.990;5.688;2023-04-29T01:20:14;12.9;72.4
78516;SHT31;67815;51.990;5.688;2023-04-29T01:22:44;12.9;72.3
78516;SHT31;67815;51.990;5.688;2023-04-29T01:25:15;12.9;72.4
78516;SHT31;67815;51.990;5.688;2023-04-29T01:27:54;12.9;72.4
78516;SHT31;67815;51.990;5.688;2023-04-29T01:30:31;12.9;72.8
78516;SHT31;67815;51.990;5.688;2023-04-29T01:33:16;12.9;72.6
78516;SHT31;67815;51.990;5.688;2023-04-29T01:36:02;12.9;72.5
78516;SHT31;67815;51.990;5.688;2023-04-29T01:38:43;12.9;72.6
78516;SHT31;67815;51.990;5.688;2023-04-29T01:41:17;12.9;72.6
78516;SHT31;67815;51.990;5.688;2023-04-29T01:43:51;12.9;72.5
78516;SHT31;67815;51.990;5.688;2023-04-29T01:46:27;12.9;72.1
78516;SHT31;67815;51.990;5.688;2023-04-29T01:48:56;12.9;72.2
78516;SHT31;67815;51.990;5.688;2023-04-29T01:51:27;12.9;72.1
78516;SHT31;67815;51.990;5.688;2023-04-29T01:53:59;12.9;71.8
78516;SHT31;67815;51.990;5.688;2023-04-29T01:56:29;12.9;72.0
78516;SHT31;67815;51.990;5.688;2023-04-29T01:58:59;12.9;71.7
78516;SHT31;67815;51.990;5.688;2023-04-29T02:01:31;12.9;72.0
78516;SHT31;67815;51.990;5.688;2023-04-29T02:04:01;12.8;72.3
78516;SHT31;67815;51.990;5.688;2023-04-29T02:06:31;12.8;72.1
78516;SHT31;67815;51.990;5.688;2023-04-29T02:09:00;12.8;72.4
78516;SHT31;67815;51.990;5.688;2023-04-29T02:11:30;12.8;72.3
78516;SHT31;67815;51.990;5.688;2023-04-29T02:14:00;12.8;71.9
78516;SHT31;67815;51.990;5.688;2023-04-29T02:16:30;12.8;72.3
78516;SHT31;67815;51.990;5.688;2023-04-29T02:18:59;12.8;71.9
78516;SHT31;67815;51.990;5.688;2023-04-29T02:21:29;12.8;72.1
78516;SHT31;67815;51.990;5.688;2023-04-29T02:23:59;12.7;71.9
78516;SHT31;67815;51.990;5.688;2023-04-29T02:26:29;12.7;71.8
78516;SHT31;67815;51.990;5.688;2023-04-29T02:28:59;12.7;72.1
78516;SHT31;67815;51.990;5.688;2023-04-29T02:31:32;12.7;72.1
78516;SHT31;67815;51.990;5.688;2023-04-29T02:34:02;12.7;72.3
78516;SHT31;67815;51.990;5.688;2023-04-29T02:36:33;12.7;72.0
78516;SHT31;67815;51.990;5.688;2023-04-29T02:39:03;12.6;72.2
78516;SHT31;67815;51.990;5.688;2023-04-29T02:41:32;12.6;72.4
78516;SHT31;67815;51.990;5.688;2023-04-29T02:44:02;12.6;72.3
78516;SHT31;67815;51.990;5.688;2023-04-29T02:46:31;12.6;72.2
78516;SHT31;67815;51.990;5.688;2023-04-29T02:49:02;12.6;72.6
78516;SHT31;67815;51.990;5.688;2023-04-29T02:51:32;12.6;72.7
78516;SHT31;67815;51.990;5.688;2023-04-29T02:54:01;12.6;72.3
78516;SHT31;67815;51.990;5.688;2023-04-29T02:56:32;12.7;72.4
78516;SHT31;67815;51.990;5.688;2023-04-29T02:59:01;12.7;72.1
78516;SHT31;67815;51.990;5.688;2023-04-29T03:01:33;12.7;72.2
78516;SHT31;67815;51.990;5.688;2023-04-29T03:04:02;12.7;71.9
78516;SHT31;67815;51.990;5.688;2023-04-29T03:06:33;12.7;71.8
78516;SHT31;67815;51.990;5.688;2023-04-29T03:09:02;12.7;72.2
78516;SHT31;67815;51.990;5.688;2023-04-29T03:11:32;12.7;72.1
78516;SHT31;67815;51.990;5.688;2023-04-29T03:14:02;12.7;71.6
78516;SHT31;67815;51.990;5.688;2023-04-29T03:16:32;12.7;71.4
78516;SHT31;67815;51.990;5.688;2023-04-29T03:19:01;12.7;71.9
78516;SHT31;67815;51.990;5.688;2023-04-29T03:21:31;12.7;71.6
78516;SHT31;67815;51.990;5.688;2023-04-29T03:24:00;12.6;71.2
78516;SHT31;67815;51.990;5.688;2023-04-29T03:26:30;12.6;72.1
78516;SHT31;67815;51.990;5.688;2023-04-29T03:28:59;12.6;71.8
78516;SHT31;67815;51.990;5.688;2023-04-29T03:31:30;12.6;71.8
78516;SHT31;67815;51.990;5.688;2023-04-29T03:34:00;12.6;71.5
78516;SHT31;67815;51.990;5.688;2023-04-29T03:36:30;12.6;71.5
78516;SHT31;67815;51.990;5.688;2023-04-29T03:39:00;12.6;71.6
78516;SHT31;67815;51.990;5.688;2023-04-29T03:41:30;12.6;71.6
78516;SHT31;67815;51.990;5.688;2023-04-29T03:44:00;12.5;71.3
78516;SHT31;67815;51.990;5.688;2023-04-29T03:46:29;12.5;71.9
78516;SHT31;67815;51.990;5.688;2023-04-29T03:49:01;12.5;71.8
78516;SHT31;67815;51.990;5.688;2023-04-29T03:51:31;12.5;71.9
78516;SHT31;67815;51.990;5.688;2023-04-29T03:54:01;12.5;72.0
78516;SHT31;67815;51.990;5.688;2023-04-29T03:56:30;12.5;71.5
78516;SHT31;67815;51.990;5.688;2023-04-29T03:59:01;12.5;72.0
78516;SHT31;67815;51.990;5.688;2023-04-29T04:01:31;12.5;71.7
78516;SHT31;67815;51.990;5.688;2023-04-29T04:04:01;12.5;71.5
78516;SHT31;67815;51.990;5.688;2023-04-29T04:06:30;12.5;71.6
78516;SHT31;67815;51.990;5.688;2023-04-29T04:09:00;12.5;71.7
78516;SHT31;67815;51.990;5.688;2023-04-29T04:11:30;12.5;71.7
78516;SHT31;67815;51.990;5.688;2023-04-29T04:13:59;12.5;71.4
78516;SHT31;67815;51.990;5.688;2023-04-29T04:16:30;12.5;71.2
78516;SHT31;67815;51.990;5.688;2023-04-29T04:18:59;12.5;71.1
78516;SHT31;67815;51.990;5.688;2023-04-29T04:21:29;12.5;71.0
78516;SHT31;67815;51.990;5.688;2023-04-29T04:23:58;12.5;70.9
78516;SHT31;67815;51.990;5.688;2023-04-29T04:26:28;12.5;71.3
78516;SHT31;67815;51.990;5.688;2023-04-29T04:28:58;12.5;71.3
78516;SHT31;67815;51.990;5.688;2023-04-29T04:31:29;12.4;71.2
78516;SHT31;67815;51.990;5.688;2023-04-29T04:33:58;12.4;71.8
78516;SHT31;67815;51.990;5.688;2023-04-29T04:36:28;12.4;71.3
78516;SHT31;67815;51.990;5.688;2023-04-29T04:38:59;12.4;71.1
78516;SHT31;67815;51.990;5.688;2023-04-29T04:41:28;12.4;71.4
78516;SHT31;67815;51.990;5.688;2023-04-29T04:44:01;12.4;71.5
78516;SHT31;67815;51.990;5.688;2023-04-29T04:46:32;12.5;71.4
78516;SHT31;67815;51.990;5.688;2023-04-29T04:49:01;12.5;71.3
78516;SHT31;67815;51.990;5.688;2023-04-29T04:51:31;12.5;71.3
78516;SHT31;67815;51.990;5.688;2023-04-29T04:54:00;12.5;71.8
78516;SHT31;67815;51.990;5.688;2023-04-29T04:56:32;12.5;71.7
78516;SHT31;67815;51.990;5.688;2023-04-29T04:59:04;12.5;71.7
78516;SHT31;67815;51.990;5.688;2023-04-29T05:01:34;12.5;71.9
78516;SHT31;67815;51.990;5.688;2023-04-29T05:04:04;12.5;71.6
78516;SHT31;67815;51.990;5.688;2023-04-29T05:06:34;12.5;71.9
78516;SHT31;67815;51.990;5.688;2023-04-29T05:09:04;12.5;71.0
78516;SHT31;67815;51.990;5.688;2023-04-29T05:11:33;12.5;70.4
78516;SHT31;67815;51.990;5.688;2023-04-29T05:14:03;12.5;70.3
78516;SHT31;67815;51.990;5.688;2023-04-29T05:16:32;12.5;70.9
78516;SHT31;67815;51.990;5.688;2023-04-29T05:19:02;12.5;71.2
78516;SHT31;67815;51.990;5.688;2023-04-29T05:21:34;12.5;71.0
78516;SHT31;67815;51.990;5.688;2023-04-29T05:24:04;12.5;70.5
78516;SHT31;67815;51.990;5.688;2023-04-29T05:26:35;12.5;70.3
78516;SHT31;67815;51.990;5.688;2023-04-29T05:29:06;12.5;70.4
78516;SHT31;67815;51.990;5.688;2023-04-29T05:31:36;12.5;70.0
78516;SHT31;67815;51.990;5.688;2023-04-29T05:34:06;12.5;70.3
78516;SHT31;67815;51.990;5.688;2023-04-29T05:36:36;12.5;69.8
78516;SHT31;67815;51.990;5.688;2023-04-29T05:39:06;12.5;70.3
78516;SHT31;67815;51.990;5.688;2023-04-29T05:41:36;12.5;70.0
78516;SHT31;67815;51.990;5.688;2023-04-29T05:44:06;12.5;69.7
78516;SHT31;67815;51.990;5.688;2023-04-29T05:46:35;12.5;70.0
78516;SHT31;67815;51.990;5.688;2023-04-29T05:49:05;12.5;69.9
78516;SHT31;67815;51.990;5.688;2023-04-29T05:51:35;12.5;69.6
78516;SHT31;67815;51.990;5.688;2023-04-29T05:54:04;12.6;70.3
78516;SHT31;67815;51.990;5.688;2023-04-29T05:56:34;12.6;69.8
78516;SHT31;67815;51.990;5.688;2023-04-29T05:59:04;12.6;69.3
78516;SHT31;67815;51.990;5.688;2023-04-29T06:01:33;12.6;69.7
78516;SHT31;67815;51.990;5.688;2023-04-29T06:04:03;12.6;69.7
78516;SHT31;67815;51.990;5.688;2023-04-29T06:06:34;12.6;70.2
78516;SHT31;67815;51.990;5.688;2023-04-29T06:09:04;12.6;68.9
78516;SHT31;67815;51.990;5.688;2023-04-29T06:11:34;12.6;69.3
78516;SHT31;67815;51.990;5.688;2023-04-29T06:14:05;12.6;69.5
78516;SHT31;67815;51.990;5.688;2023-04-29T06:16:35;12.6;69.9
78516;SHT31;67815;51.990;5.688;2023-04-29T06:19:05;12.7;69.4
78516;SHT31;67815;51.990;5.688;2023-04-29T06:21:35;12.7;70.0
78516;SHT31;67815;51.990;5.688;2023-04-29T06:24:05;12.7;69.7
78516;SHT31;67815;51.990;5.688;2023-04-29T06:26:36;12.7;69.8
78516;SHT31;67815;51.990;5.688;2023-04-29T06:29:07;12.7;70.2
78516;SHT31;67815;51.990;5.688;2023-04-29T06:31:37;12.7;70.0
78516;SHT31;67815;51.990;5.688;2023-04-29T06:34:08;12.8;68.8
78516;SHT31;67815;51.990;5.688;2023-04-29T06:36:39;12.8;68.1
78516;SHT31;67815;51.990;5.688;2023-04-29T06:39:08;12.8;68.2
78516;SHT31;67815;51.990;5.688;2023-04-29T06:41:38;12.8;68.7
78516;SHT31;67815;51.990;5.688;2023-04-29T06:44:09;12.8;68.9
78516;SHT31;67815;51.990;5.688;2023-04-29T06:46:39;12.8;68.2
78516;SHT31;67815;51.990;5.688;2023-04-29T06:49:09;12.8;68.6
78516;SHT31;67815;51.990;5.688;2023-04-29T06:51:39;12.8;68.3
78516;SHT31;67815;51.990;5.688;2023-04-29T06:54:09;12.8;68.8
78516;SHT31;67815;51.990;5.688;2023-04-29T06:56:39;12.8;69.4
78516;SHT31;67815;51.990;5.688;2023-04-29T06:59:08;12.8;68.5
78516;SHT31;67815;51.990;5.688;2023-04-29T07:01:39;12.8;68.7
78516;SHT31;67815;51.990;5.688;2023-04-29T07:04:08;12.8;68.6
78516;SHT31;67815;51.990;5.688;2023-04-29T07:06:39;12.9;69.5
78516;SHT31;67815;51.990;5.688;2023-04-29T07:09:08;12.9;69.1
78516;SHT31;67815;51.990;5.688;2023-04-29T07:11:39;12.9;69.7
78516;SHT31;67815;51.990;5.688;2023-04-29T07:14:08;12.9;69.2
78516;SHT31;67815;51.990;5.688;2023-04-29T07:16:39;13.0;69.0
78516;SHT31;67815;51.990;5.688;2023-04-29T07:19:09;13.0;68.6
78516;SHT31;67815;51.990;5.688;2023-04-29T07:21:39;13.1;68.0
78516;SHT31;67815;51.990;5.688;2023-04-29T07:24:08;13.1;67.6
78516;SHT31;67815;51.990;5.688;2023-04-29T07:26:38;13.1;67.2
78516;SHT31;67815;51.990;5.688;2023-04-29T07:29:07;13.2;66.5
78516;SHT31;67815;51.990;5.688;2023-04-29T07:31:37;13.2;67.7
78516;SHT31;67815;51.990;5.688;2023-04-29T07:34:07;13.2;66.7
78516;SHT31;67815;51.990;5.688;2023-04-29T07:36:36;13.3;65.8
78516;SHT31;67815;51.990;5.688;2023-04-29T07:39:06;13.3;64.5
78516;SHT31;67815;51.990;5.688;2023-04-29T07:41:35;13.3;64.4
78516;SHT31;67815;51.990;5.688;2023-04-29T07:44:06;13.3;66.9
78516;SHT31;67815;51.990;5.688;2023-04-29T07:46:35;13.4;65.3
78516;SHT31;67815;51.990;5.688;2023-04-29T07:49:05;13.4;66.7
78516;SHT31;67815;51.990;5.688;2023-04-29T07:51:35;13.4;66.8
78516;SHT31;67815;51.990;5.688;2023-04-29T07:54:04;13.5;65.2
78516;SHT31;67815;51.990;5.688;2023-04-29T07:56:34;13.5;63.3
78516;SHT31;67815;51.990;5.688;2023-04-29T07:59:04;13.5;64.6
78516;SHT31;67815;51.990;5.688;2023-04-29T08:01:33;13.5;62.7
78516;SHT31;67815;51.990;5.688;2023-04-29T08:04:03;13.5;65.1
78516;SHT31;67815;51.990;5.688;2023-04-29T08:06:34;13.5;63.5
78516;SHT31;67815;51.990;5.688;2023-04-29T08:09:04;13.6;64.3
78516;SHT31;67815;51.990;5.688;2023-04-29T08:11:34;13.6;63.6
78516;SHT31;67815;51.990;5.688;2023-04-29T08:14:03;13.6;63.8
78516;SHT31;67815;51.990;5.688;2023-04-29T08:16:35;13.6;62.9
78516;SHT31;67815;51.990;5.688;2023-04-29T08:19:04;13.6;62.6
78516;SHT31;67815;51.990;5.688;2023-04-29T08:21:34;13.7;63.5
78516;SHT31;67815;51.990;5.688;2023-04-29T08:24:03;13.7;63.5
78516;SHT31;67815;51.990;5.688;2023-04-29T08:26:33;13.7;63.9
78516;SHT31;67815;51.990;5.688;2023-04-29T08:29:02;13.8;63.0
78516;SHT31;67815;51.990;5.688;2023-04-29T08:31:32;13.8;61.4
78516;SHT31;67815;51.990;5.688;2023-04-29T08:34:01;13.9;62.9
78516;SHT31;67815;51.990;5.688;2023-04-29T08:36:31;13.9;62.8
78516;SHT31;67815;51.990;5.688;2023-04-29T08:39:03;14.0;62.0
78516;SHT31;67815;51.990;5.688;2023-04-29T08:41:33;14.0;62.2
78516;SHT31;67815;51.990;5.688;2023-04-29T08:44:05;14.1;62.3
78516;SHT31;67815;51.990;5.688;2023-04-29T08:46:35;14.1;62.9
78516;SHT31;67815;51.990;5.688;2023-04-29T08:49:06;14.2;63.3
78516;SHT31;67815;51.990;5.688;2023-04-29T08:51:36;14.2;61.9
78516;SHT31;67815;51.990;5.688;2023-04-29T08:54:06;14.2;62.1
78516;SHT31;67815;51.990;5.688;2023-04-29T08:56:36;14.3;60.5
78516;SHT31;67815;51.990;5.688;2023-04-29T08:59:08;14.3;58.5
78516;SHT31;67815;51.990;5.688;2023-04-29T09:01:39;14.3;59.2
78516;SHT31;67815;51.990;5.688;2023-04-29T09:04:18;14.3;59.6
78516;SHT31;67815;51.990;5.688;2023-04-29T09:06:50;14.3;60.3
78516;SHT31;67815;51.990;5.688;2023-04-29T09:09:20;14.3;60.8
78516;SHT31;67815;51.990;5.688;2023-04-29T09:11:50;14.3;59.3
78516;SHT31;67815;51.990;5.688;2023-04-29T09:14:22;14.4;58.9
78516;SHT31;67815;51.990;5.688;2023-04-29T09:16:52;14.4;59.3
78516;SHT31;67815;51.990;5.688;2023-04-29T09:19:33;14.5;59.2
78516;SHT31;67815;51.990;5.688;2023-04-29T09:22:04;14.6;59.7
78516;SHT31;67815;51.990;5.688;2023-04-29T09:24:36;14.6;58.4
78516;SHT31;67815;51.990;5.688;2023-04-29T09:27:06;14.6;59.1
78516;SHT31;67815;51.990;5.688;2023-04-29T09:29:37;14.6;59.0
78516;SHT31;67815;51.990;5.688;2023-04-29T09:32:19;14.6;57.6
78516;SHT31;67815;51.990;5.688;2023-04-29T09:34:49;14.6;58.2
78516;SHT31;67815;51.990;5.688;2023-04-29T09:37:26;14.6;58.4
78516;SHT31;67815;51.990;5.688;2023-04-29T09:39:58;14.6;57.2
78516;SHT31;67815;51.990;5.688;2023-04-29T09:42:28;14.6;57.8
78516;SHT31;67815;51.990;5.688;2023-04-29T09:44:59;14.6;57.2
78516;SHT31;67815;51.990;5.688;2023-04-29T09:47:30;14.6;58.6
78516;SHT31;67815;51.990;5.688;2023-04-29T09:50:12;14.7;57.9
78516;SHT31;67815;51.990;5.688;2023-04-29T09:52:42;14.7;57.7
78516;SHT31;67815;51.990;5.688;2023-04-29T09:55:12;14.7;56.5
78516;SHT31;67815;51.990;5.688;2023-04-29T09:57:43;14.7;55.2
78516;SHT31;67815;51.990;5.688;2023-04-29T10:00:14;14.7;55.9
78516;SHT31;67815;51.990;5.688;2023-04-29T10:02:45;14.8;55.5
78516;SHT31;67815;51.990;5.688;2023-04-29T10:05:16;14.8;55.2
78516;SHT31;67815;51.990;5.688;2023-04-29T10:07:48;14.8;56.1
78516;SHT31;67815;51.990;5.688;2023-04-29T10:10:22;14.9;57.0
78516;SHT31;67815;51.990;5.688;2023-04-29T10:12:54;14.9;57.1
78516;SHT31;67815;51.990;5.688;2023-04-29T10:15:34;15.0;55.4
78516;SHT31;67815;51.990;5.688;2023-04-29T10:18:17;15.0;55.3
78516;SHT31;67815;51.990;5.688;2023-04-29T10:20:49;15.1;55.3
78516;SHT31;67815;51.990;5.688;2023-04-29T10:23:20;15.1;55.0
78516;SHT31;67815;51.990;5.688;2023-04-29T10:25:52;15.1;55.7
78516;SHT31;67815;51.990;5.688;2023-04-29T10:28:25;15.1;56.9
78516;SHT31;67815;51.990;5.688;2023-04-29T10:30:57;15.2;56.4
78516;SHT31;67815;51.990;5.688;2023-04-29T10:33:30;15.2;55.2
78516;SHT31;67815;51.990;5.688;2023-04-29T10:36:02;15.3;54.9
78516;SHT31;67815;51.990;5.688;2023-04-29T10:38:38;15.3;54.3
78516;SHT31;67815;51.990;5.688;2023-04-29T10:41:18;15.4;53.7
78516;SHT31;67815;51.990;5.688;2023-04-29T10:43:52;15.4;55.7
78516;SHT31;67815;51.990;5.688;2023-04-29T10:46:23;15.5;55.6
78516;SHT31;67815;51.990;5.688;2023-04-29T10:49:00;15.5;55.8
78516;SHT31;67815;51.990;5.688;2023-04-29T10:51:33;15.6;54.4
78516;SHT31;67815;51.990;5.688;2023-04-29T10:54:07;15.6;54.1
78516;SHT31;67815;51.990;5.688;2023-04-29T10:56:43;15.6;54.4
78516;SHT31;67815;51.990;5.688;2023-04-29T10:59:15;15.6;54.3
78516;SHT31;67815;51.990;5.688;2023-04-29T11:01:51;15.6;56.4
78516;SHT31;67815;51.990;5.688;2023-04-29T11:04:22;15.7;54.4
78516;SHT31;67815;51.990;5.688;2023-04-29T11:06:54;15.7;52.2
78516;SHT31;67815;51.990;5.688;2023-04-29T11:09:27;15.7;53.5
78516;SHT31;67815;51.990;5.688;2023-04-29T11:12:00;15.7;55.3
78516;SHT31;67815;51.990;5.688;2023-04-29T11:14:33;15.7;55.4
78516;SHT31;67815;51.990;5.688;2023-04-29T11:17:08;15.8;53.9
78516;SHT31;67815;51.990;5.688;2023-04-29T11:19:41;15.8;55.2
78516;SHT31;67815;51.990;5.688;2023-04-29T11:22:27;15.9;54.2
78516;SHT31;67815;51.990;5.688;2023-04-29T11:25:02;16.0;52.2
78516;SHT31;67815;51.990;5.688;2023-04-29T11:27:34;16.0;51.2
78516;SHT31;67815;51.990;5.688;2023-04-29T11:30:06;16.0;54.2
78516;SHT31;67815;51.990;5.688;2023-04-29T11:32:39;16.1;52.0
78516;SHT31;67815;51.990;5.688;2023-04-29T11:35:11;16.1;52.8
78516;SHT31;67815;51.990;5.688;2023-04-29T11:37:43;16.1;53.9
78516;SHT31;67815;51.990;5.688;2023-04-29T11:40:14;16.2;52.0
78516;SHT31;67815;51.990;5.688;2023-04-29T11:42:46;16.2;49.9
78516;SHT31;67815;51.990;5.688;2023-04-29T11:45:18;16.3;50.0
78516;SHT31;67815;51.990;5.688;2023-04-29T11:47:49;16.3;50.3
78516;SHT31;67815;51.990;5.688;2023-04-29T11:50:18;16.3;50.7
78516;SHT31;67815;51.990;5.688;2023-04-29T11:52:50;16.3;50.7
78516;SHT31;67815;51.990;5.688;2023-04-29T11:55:20;16.3;52.9
78516;SHT31;67815;51.990;5.688;2023-04-29T11:57:53;16.3;51.7
78516;SHT31;67815;51.990;5.688;2023-04-29T12:00:23;16.3;52.6
78516;SHT31;67815;51.990;5.688;2023-04-29T12:02:53;16.3;52.1
78516;SHT31;67815;51.990;5.688;2023-04-29T12:05:24;16.4;52.8
78516;SHT31;67815;51.990;5.688;2023-04-29T12:07:55;16.4;50.5
78516;SHT31;67815;51.990;5.688;2023-04-29T12:10:25;16.4;49.4
78516;SHT31;67815;51.990;5.688;2023-04-29T12:12:55;16.4;49.4
78516;SHT31;67815;51.990;5.688;2023-04-29T12:15:25;16.4;50.9
78516;SHT31;67815;51.990;5.688;2023-04-29T12:17:56;16.5;49.9
78516;SHT31;67815;51.990;5.688;2023-04-29T12:20:26;16.5;49.8
78516;SHT31;67815;51.990;5.688;2023-04-29T12:23:13;16.5;50.5
78516;SHT31;67815;51.990;5.688;2023-04-29T12:25:49;16.5;52.0
78516;SHT31;67815;51.990;5.688;2023-04-29T12:28:20;16.6;51.0
78516;SHT31;67815;51.990;5.688;2023-04-29T12:30:52;16.6;51.6
78516;SHT31;67815;51.990;5.688;2023-04-29T12:33:24;16.7;49.0
78516;SHT31;67815;51.990;5.688;2023-04-29T12:35:56;16.8;51.8
78516;SHT31;67815;51.990;5.688;2023-04-29T12:38:27;16.8;50.8
78516;SHT31;67815;51.990;5.688;2023-04-29T12:40:59;16.9;49.3
78516;SHT31;67815;51.990;5.688;2023-04-29T12:43:31;16.9;49.7
78516;SHT31;67815;51.990;5.688;2023-04-29T12:46:02;16.9;50.5
78516;SHT31;67815;51.990;5.688;2023-04-29T12:48:35;17.0;49.9
78516;SHT31;67815;51.990;5.688;2023-04-29T12:51:09;17.0;47.6
78516;SHT31;67815;51.990;5.688;2023-04-29T12:53:39;17.0;48.5
78516;SHT31;67815;51.990;5.688;2023-04-29T12:56:10;17.0;47.3
78516;SHT31;67815;51.990;5.688;2023-04-29T12:58:40;17.0;50.6
78516;SHT31;67815;51.990;5.688;2023-04-29T13:01:10;17.0;48.6
78516;SHT31;67815;51.990;5.688;2023-04-29T13:03:40;17.1;49.1
78516;SHT31;67815;51.990;5.688;2023-04-29T13:06:09;17.1;51.2
78516;SHT31;67815;51.990;5.688;2023-04-29T13:08:39;17.1;47.0
78516;SHT31;67815;51.990;5.688;2023-04-29T13:11:09;17.1;47.9
78516;SHT31;67815;51.990;5.688;2023-04-29T13:13:39;17.2;45.5
78516;SHT31;67815;51.990;5.688;2023-04-29T13:16:09;17.2;48.0
78516;SHT31;67815;51.990;5.688;2023-04-29T13:18:38;17.2;48.4
78516;SHT31;67815;51.990;5.688;2023-04-29T13:21:08;17.2;49.7
78516;SHT31;67815;51.990;5.688;2023-04-29T13:23:38;17.2;48.6
78516;SHT31;67815;51.990;5.688;2023-04-29T13:26:08;17.2;49.3
78516;SHT31;67815;51.990;5.688;2023-04-29T13:28:37;17.2;47.3
78516;SHT31;67815;51.990;5.688;2023-04-29T13:31:07;17.2;49.2
78516;SHT31;67815;51.990;5.688;2023-04-29T13:33:37;17.3;49.8
78516;SHT31;67815;51.990;5.688;2023-04-29T13:36:08;17.3;49.1
78516;SHT31;67815;51.990;5.688;2023-04-29T13:38:37;17.3;46.5
78516;SHT31;67815;51.990;5.688;2023-04-29T13:41:08;17.4;46.4
78516;SHT31;67815;51.990;5.688;2023-04-29T13:43:37;17.4;47.0
78516;SHT31;67815;51.990;5.688;2023-04-29T13:46:08;17.4;48.7
78516;SHT31;67815;51.990;5.688;2023-04-29T13:48:38;17.5;45.7
78516;SHT31;67815;51.990;5.688;2023-04-29T13:51:07;17.5;48.2
78516;SHT31;67815;51.990;5.688;2023-04-29T13:53:37;17.5;47.8
78516;SHT31;67815;51.990;5.688;2023-04-29T13:56:08;17.5;48.2
78516;SHT31;67815;51.990;5.688;2023-04-29T13:58:38;17.5;44.4
78516;SHT31;67815;51.990;5.688;2023-04-29T14:01:08;17.5;44.9
78516;SHT31;67815;51.990;5.688;2023-04-29T14:03:38;17.5;44.2
78516;SHT31;67815;51.990;5.688;2023-04-29T14:06:08;17.6;45.5
78516;SHT31;67815;51.990;5.688;2023-04-29T14:08:38;17.6;46.3
78516;SHT31;67815;51.990;5.688;2023-04-29T14:11:08;17.6;46.7
78516;SHT31;67815;51.990;5.688;2023-04-29T14:13:37;17.6;47.4
78516;SHT31;67815;51.990;5.688;2023-04-29T14:16:10;17.6;46.8
78516;SHT31;67815;51.990;5.688;2023-04-29T14:18:40;17.6;48.0
78516;SHT31;67815;51.990;5.688;2023-04-29T14:21:09;17.6;47.8
78516;SHT31;67815;51.990;5.688;2023-04-29T14:23:40;17.6;47.6
78516;SHT31;67815;51.990;5.688;2023-04-29T14:26:10;17.6;47.0
78516;SHT31;67815;51.990;5.688;2023-04-29T14:28:40;17.6;47.4
78516;SHT31;67815;51.990;5.688;2023-04-29T14:31:10;17.6;46.2
78516;SHT31;67815;51.990;5.688;2023-04-29T14:33:41;17.6;48.0
78516;SHT31;67815;51.990;5.688;2023-04-29T14:36:11;17.6;46.2
78516;SHT31;67815;51.990;5.688;2023-04-29T14:38:40;17.6;49.1
78516;SHT31;67815;51.990;5.688;2023-04-29T14:41:10;17.7;49.6
78516;SHT31;67815;51.990;5.688;2023-04-29T14:43:40;17.7;49.3
78516;SHT31;67815;51.990;5.688;2023-04-29T14:46:13;17.8;47.6
78516;SHT31;67815;51.990;5.688;2023-04-29T14:48:42;17.8;46.3
78516;SHT31;67815;51.990;5.688;2023-04-29T14:51:15;17.8;47.8
78516;SHT31;67815;51.990;5.688;2023-04-29T14:53:44;17.9;48.5
78516;SHT31;67815;51.990;5.688;2023-04-29T14:56:15;17.9;47.2
78516;SHT31;67815;51.990;5.688;2023-04-29T14:58:45;17.9;48.2
78516;SHT31;67815;51.990;5.688;2023-04-29T15:01:14;17.9;47.9
78516;SHT31;67815;51.990;5.688;2023-04-29T15:03:46;17.9;46.8
78516;SHT31;67815;51.990;5.688;2023-04-29T15:06:15;17.9;46.8
78516;SHT31;67815;51.990;5.688;2023-04-29T15:08:45;17.9;46.7
78516;SHT31;67815;51.990;5.688;2023-04-29T15:11:15;17.9;46.4
78516;SHT31;67815;51.990;5.688;2023-04-29T15:13:44;17.9;46.5
78516;SHT31;67815;51.990;5.688;2023-04-29T15:16:16;17.9;48.0
78516;SHT31;67815;51.990;5.688;2023-04-29T15:18:45;18.0;47.9
78516;SHT31;67815;51.990;5.688;2023-04-29T15:21:15;18.0;49.3
78516;SHT31;67815;51.990;5.688;2023-04-29T15:23:46;18.0;48.9
78516;SHT31;67815;51.990;5.688;2023-04-29T15:26:18;18.1;48.1
78516;SHT31;67815;51.990;5.688;2023-04-29T15:28:50;18.2;46.9
78516;SHT31;67815;51.990;5.688;2023-04-29T15:31:19;18.2;47.5
78516;SHT31;67815;51.990;5.688;2023-04-29T15:33:52;18.3;47.4
78516;SHT31;67815;51.990;5.688;2023-04-29T15:36:27;18.3;47.9
78516;SHT31;67815;51.990;5.688;2023-04-29T15:38:59;18.3;47.8
78516;SHT31;67815;51.990;5.688;2023-04-29T15:41:30;18.4;47.3
78516;SHT31;67815;51.990;5.688;2023-04-29T15:44:02;18.4;47.7
78516;SHT31;67815;51.990;5.688;2023-04-29T15:46:33;18.4;46.8
78516;SHT31;67815;51.990;5.688;2023-04-29T15:49:03;18.5;47.6
78516;SHT31;67815;51.990;5.688;2023-04-29T15:51:34;18.5;46.6
78516;SHT31;67815;51.990;5.688;2023-04-29T15:54:03;18.5;45.7
78516;SHT31;67815;51.990;5.688;2023-04-29T15:56:34;18.5;44.7
78516;SHT31;67815;51.990;5.688;2023-04-29T15:59:04;18.5;44.5
78516;SHT31;67815;51.990;5.688;2023-04-29T16:01:33;18.5;45.4
78516;SHT31;67815;51.990;5.688;2023-04-29T16:04:03;18.5;45.8
78516;SHT31;67815;51.990;5.688;2023-04-29T16:06:32;18.4;45.2
78516;SHT31;67815;51.990;5.688;2023-04-29T16:09:02;18.4;46.5
78516;SHT31;67815;51.990;5.688;2023-04-29T16:11:32;18.4;45.6
78516;SHT31;67815;51.990;5.688;2023-04-29T16:14:02;18.4;44.7
78516;SHT31;67815;51.990;5.688;2023-04-29T16:16:31;18.3;44.5
78516;SHT31;67815;51.990;5.688;2023-04-29T16:19:01;18.3;45.9
78516;SHT31;67815;51.990;5.688;2023-04-29T16:21:31;18.2;45.1
78516;SHT31;67815;51.990;5.688;2023-04-29T16:24:01;18.2;44.9
78516;SHT31;67815;51.990;5.688;2023-04-29T16:26:32;18.2;45.6